sensor_id;sensor_type;location;lat;lon;timestamp;temperature;humidity
21944;DHT22;11136;48.778;9.126;2022-11-09T00:01:24;14.10;96.60
21944;DHT22;11136;48.778;9.126;2022-11-09T00:03:55;14.10;96.50
21944;DHT22;11136;48.778;9.126;2022-11-09T00:06:22;14.10;96.50
21944;DHT22;11136;48.778;9.126;2022-11-09T00:08:48;14.10;96.40
21944;DHT22;11136;48.778;9.126;2022-11-09T00:11:13;14.10;96.30
21944;DHT22;11136;48.778;9.126;2022-11-09T00:13:43;14.10;96.30
21944;DHT22;11136;48.778;9.126;2022-11-09T00:16:10;14.10;96.30
21944;DHT22;11136;48.778;9.126;2022-11-09T00:18:37;14.10;96.10
21944;DHT22;11136;48.778;9.126;2022-11-09T00:21:07;14.20;96.10
21944;DHT22;11136;48.778;9.126;2022-11-09T00:23:33;14.20;96.30
21944;DHT22;11136;48.778;9.126;2022-11-09T00:26:03;14.20;96.30
21944;DHT22;11136;48.778;9.126;2022-11-09T00:28:30;14.20;96.10
21944;DHT22;11136;48.778;9.126;2022-11-09T00:31:07;14.20;96.00
21944;DHT22;11136;48.778;9.126;2022-11-09T00:33:34;14.20;96.00
21944;DHT22;11136;48.778;9.126;2022-11-09T00:36:04;14.20;95.90
21944;DHT22;11136;48.778;9.126;2022-11-09T00:38:34;14.20;95.90
21944;DHT22;11136;48.778;9.126;2022-11-09T00:41:04;14.20;95.90
21944;DHT22;11136;48.778;9.126;2022-11-09T00:43:30;14.30;95.90
21944;DHT22;11136;48.778;9.126;2022-11-09T00:45:56;14.30;95.90
21944;DHT22;11136;48.778;9.126;2022-11-09T00:48:21;14.30;95.90
21944;DHT22;11136;48.778;9.126;2022-11-09T00:50:51;14.30;95.90
21944;DHT22;11136;48.778;9.126;2022-11-09T00:53:17;14.30;95.80
21944;DHT22;11136;48.778;9.126;2022-11-09T00:55:58;14.30;96.00
21944;DHT22;11136;48.778;9.126;2022-11-09T00:58:29;14.30;96.00
21944;DHT22;11136;48.778;9.126;2022-11-09T01:00:56;14.20;96.00
21944;DHT22;11136;48.778;9.126;2022-11-09T01:03:22;14.20;96.20
21944;DHT22;11136;48.778;9.126;2022-11-09T01:05:48;14.50;96.50
21944;DHT22;11136;48.778;9.126;2022-11-09T01:08:14;14.20;96.60
21944;DHT22;11136;48.778;9.126;2022-11-09T01:10:44;14.20;96.70
21944;DHT22;11136;48.778;9.126;2022-11-09T01:13:11;14.20;96.70
21944;DHT22;11136;48.778;9.126;2022-11-09T01:15:45;14.10;96.80
21944;DHT22;11136;48.778;9.126;2022-11-09T01:18:12;14.10;96.70
21944;DHT22;11136;48.778;9.126;2022-11-09T01:20:42;14.10;96.70
21944;DHT22;11136;48.778;9.126;2022-11-09T01:23:09;14.10;96.70
21944;DHT22;11136;48.778;9.126;2022-11-09T01:25:35;14.10;96.70
21944;DHT22;11136;48.778;9.126;2022-11-09T01:28:00;14.20;96.60
21944;DHT22;11136;48.778;9.126;2022-11-09T01:30:26;14.10;96.50
21944;DHT22;11136;48.778;9.126;2022-11-09T01:32:52;14.10;96.50
21944;DHT22;11136;48.778;9.126;2022-11-09T01:35:18;14.10;96.40
21944;DHT22;11136;48.778;9.126;2022-11-09T01:37:44;14.10;96.30
21944;DHT22;11136;48.778;9.126;2022-11-09T01:40:10;14.10;96.40
21944;DHT22;11136;48.778;9.126;2022-11-09T01:42:36;14.20;96.40
21944;DHT22;11136;48.778;9.126;2022-11-09T01:47:44;14.20;96.30
21944;DHT22;11136;48.778;9.126;2022-11-09T01:50:11;14.20;96.20
21944;DHT22;11136;48.778;9.126;2022-11-09T01:52:41;14.20;96.30
21944;DHT22;11136;48.778;9.126;2022-11-09T01:55:14;14.20;96.30
21944;DHT22;11136;48.778;9.126;2022-11-09T01:57:55;14.20;96.20
21944;DHT22;11136;48.778;9.126;2022-11-09T02:00:22;14.20;96.20
21944;DHT22;11136;48.778;9.126;2022-11-09T02:03:18;14.20;96.30
21944;DHT22;11136;48.778;9.126;2022-11-09T02:05:42;14.20;96.30
21944;DHT22;11136;48.778;9.126;2022-11-09T02:08:09;14.20;96.30
21944;DHT22;11136;48.778;9.126;2022-11-09T02:13:28;14.20;96.10
21944;DHT22;11136;48.778;9.126;2022-11-09T02:15:54;14.20;96.10
21944;DHT22;11136;48.778;9.126;2022-11-09T02:18:20;14.20;96.10
21944;DHT22;11136;48.778;9.126;2022-11-09T02:20:50;14.20;96.10
21944;DHT22;11136;48.778;9.126;2022-11-09T02:23:17;14.20;96.00
21944;DHT22;11136;48.778;9.126;2022-11-09T02:25:56;14.20;96.00
21944;DHT22;11136;48.778;9.126;2022-11-09T02:28:24;14.30;96.00
21944;DHT22;11136;48.778;9.126;2022-11-09T02:30:53;14.30;95.90
21944;DHT22;11136;48.778;9.126;2022-11-09T02:33:19;14.30;95.90
21944;DHT22;11136;48.778;9.126;2022-11-09T02:35:45;14.30;95.90
21944;DHT22;11136;48.778;9.126;2022-11-09T02:38:12;14.30;95.90
21944;DHT22;11136;48.778;9.126;2022-11-09T02:40:41;14.30;95.80
21944;DHT22;11136;48.778;9.126;2022-11-09T02:43:08;14.30;95.80
21944;DHT22;11136;48.778;9.126;2022-11-09T02:45:35;14.30;95.90
21944;DHT22;11136;48.778;9.126;2022-11-09T02:48:01;14.30;95.90
21944;DHT22;11136;48.778;9.126;2022-11-09T02:50:26;14.30;95.90
21944;DHT22;11136;48.778;9.126;2022-11-09T02:52:52;14.30;95.90
21944;DHT22;11136;48.778;9.126;2022-11-09T02:55:17;14.30;96.00
21944;DHT22;11136;48.778;9.126;2022-11-09T02:57:43;14.30;96.00
21944;DHT22;11136;48.778;9.126;2022-11-09T03:00:09;14.40;96.00
21944;DHT22;11136;48.778;9.126;2022-11-09T03:02:35;14.40;95.90
21944;DHT22;11136;48.778;9.126;2022-11-09T03:05:00;14.30;96.20
21944;DHT22;11136;48.778;9.126;2022-11-09T03:07:26;14.30;95.80
21944;DHT22;11136;48.778;9.126;2022-11-09T03:09:51;14.50;96.00
21944;DHT22;11136;48.778;9.126;2022-11-09T03:12:21;14.20;96.20
21944;DHT22;11136;48.778;9.126;2022-11-09T03:14:57;14.20;96.70
21944;DHT22;11136;48.778;9.126;2022-11-09T03:17:24;14.10;97.10
21944;DHT22;11136;48.778;9.126;2022-11-09T03:19:50;14.10;97.50
21944;DHT22;11136;48.778;9.126;2022-11-09T03:22:15;14.10;97.90
21944;DHT22;11136;48.778;9.126;2022-11-09T03:24:41;14.00;98.20
21944;DHT22;11136;48.778;9.126;2022-11-09T03:27:06;14.00;98.50
21944;DHT22;11136;48.778;9.126;2022-11-09T03:29:32;13.90;98.70
21944;DHT22;11136;48.778;9.126;2022-11-09T03:31:58;13.80;99.30
21944;DHT22;11136;48.778;9.126;2022-11-09T03:34:23;13.80;99.70
21944;DHT22;11136;48.778;9.126;2022-11-09T03:36:49;13.80;99.90
21944;DHT22;11136;48.778;9.126;2022-11-09T03:39:14;13.70;99.90
21944;DHT22;11136;48.778;9.126;2022-11-09T03:41:40;13.70;99.90
21944;DHT22;11136;48.778;9.126;2022-11-09T03:44:05;13.70;99.90
21944;DHT22;11136;48.778;9.126;2022-11-09T03:46:31;13.60;99.90
21944;DHT22;11136;48.778;9.126;2022-11-09T03:48:56;13.70;99.90
21944;DHT22;11136;48.778;9.126;2022-11-09T03:51:22;13.60;99.90
21944;DHT22;11136;48.778;9.126;2022-11-09T03:53:48;13.60;99.90
21944;DHT22;11136;48.778;9.126;2022-11-09T03:56:13;13.60;99.90
21944;DHT22;11136;48.778;9.126;2022-11-09T03:58:39;13.60;99.90
21944;DHT22;11136;48.778;9.126;2022-11-09T04:01:04;13.50;99.90
21944;DHT22;11136;48.778;9.126;2022-11-09T04:03:30;13.50;99.90
21944;DHT22;11136;48.778;9.126;2022-11-09T04:05:58;13.50;99.90
21944;DHT22;11136;48.778;9.126;2022-11-09T04:08:23;13.40;99.90
21944;DHT22;11136;48.778;9.126;2022-11-09T04:10:49;13.50;99.90
21944;DHT22;11136;48.778;9.126;2022-11-09T04:13:14;13.40;99.90
21944;DHT22;11136;48.778;9.126;2022-11-09T04:15:41;13.40;99.90
21944;DHT22;11136;48.778;9.126;2022-11-09T04:18:10;13.50;99.90
21944;DHT22;11136;48.778;9.126;2022-11-09T04:20:37;13.40;99.90
21944;DHT22;11136;48.778;9.126;2022-11-09T04:23:04;13.50;99.90
21944;DHT22;11136;48.778;9.126;2022-11-09T04:25:35;13.40;99.90
21944;DHT22;11136;48.778;9.126;2022-11-09T04:28:02;13.40;99.90
21944;DHT22;11136;48.778;9.126;2022-11-09T04:30:29;13.50;99.90
21944;DHT22;11136;48.778;9.126;2022-11-09T04:32:56;13.80;99.90
21944;DHT22;11136;48.778;9.126;2022-11-09T04:35:22;13.50;99.90
21944;DHT22;11136;48.778;9.126;2022-11-09T04:37:53;13.50;99.90
21944;DHT22;11136;48.778;9.126;2022-11-09T04:40:19;13.40;99.90
21944;DHT22;11136;48.778;9.126;2022-11-09T04:42:45;13.50;99.90
21944;DHT22;11136;48.778;9.126;2022-11-09T04:45:10;13.50;99.90
21944;DHT22;11136;48.778;9.126;2022-11-09T04:47:36;13.50;99.90
21944;DHT22;11136;48.778;9.126;2022-11-09T04:50:01;13.50;99.90
21944;DHT22;11136;48.778;9.126;2022-11-09T04:52:27;13.50;99.90
21944;DHT22;11136;48.778;9.126;2022-11-09T04:54:52;13.50;99.90
21944;DHT22;11136;48.778;9.126;2022-11-09T04:57:18;13.50;99.90
21944;DHT22;11136;48.778;9.126;2022-11-09T04:59:43;13.50;99.90
21944;DHT22;11136;48.778;9.126;2022-11-09T05:02:09;13.50;99.90
21944;DHT22;11136;48.778;9.126;2022-11-09T05:04:34;13.50;99.90
21944;DHT22;11136;48.778;9.126;2022-11-09T05:07:00;13.50;99.90
21944;DHT22;11136;48.778;9.126;2022-11-09T05:09:25;13.50;99.90
21944;DHT22;11136;48.778;9.126;2022-11-09T05:11:51;13.50;99.90
21944;DHT22;11136;48.778;9.126;2022-11-09T05:14:16;13.50;99.90
21944;DHT22;11136;48.778;9.126;2022-11-09T05:16:42;13.50;99.90
21944;DHT22;11136;48.778;9.126;2022-11-09T05:19:07;13.40;99.90
21944;DHT22;11136;48.778;9.126;2022-11-09T05:21:33;13.40;99.90
21944;DHT22;11136;48.778;9.126;2022-11-09T05:23:58;13.40;99.90
21944;DHT22;11136;48.778;9.126;2022-11-09T05:28:50;13.40;99.90
21944;DHT22;11136;48.778;9.126;2022-11-09T05:31:17;13.30;99.90
21944;DHT22;11136;48.778;9.126;2022-11-09T05:33:43;13.30;99.90
21944;DHT22;11136;48.778;9.126;2022-11-09T05:36:08;13.30;99.90
21944;DHT22;11136;48.778;9.126;2022-11-09T05:38:34;13.40;99.90
21944;DHT22;11136;48.778;9.126;2022-11-09T05:40:59;13.30;99.90
21944;DHT22;11136;48.778;9.126;2022-11-09T05:43:25;13.30;99.90
21944;DHT22;11136;48.778;9.126;2022-11-09T05:45:50;13.30;99.90
21944;DHT22;11136;48.778;9.126;2022-11-09T05:48:17;13.30;99.90
21944;DHT22;11136;48.778;9.126;2022-11-09T05:50:43;13.20;99.90
21944;DHT22;11136;48.778;9.126;2022-11-09T05:53:10;13.20;99.90
21944;DHT22;11136;48.778;9.126;2022-11-09T05:55:36;13.20;99.90
21944;DHT22;11136;48.778;9.126;2022-11-09T05:58:02;13.20;99.90
21944;DHT22;11136;48.778;9.126;2022-11-09T06:00:28;13.50;99.90
21944;DHT22;11136;48.778;9.126;2022-11-09T06:03:00;13.20;99.90
21944;DHT22;11136;48.778;9.126;2022-11-09T06:05:26;13.30;99.90
21944;DHT22;11136;48.778;9.126;2022-11-09T06:07:51;13.10;99.90
21944;DHT22;11136;48.778;9.126;2022-11-09T06:10:17;13.10;99.90
21944;DHT22;11136;48.778;9.126;2022-11-09T06:12:42;13.10;99.90
21944;DHT22;11136;48.778;9.126;2022-11-09T06:15:08;13.10;99.90
21944;DHT22;11136;48.778;9.126;2022-11-09T06:17:34;13.10;99.90
21944;DHT22;11136;48.778;9.126;2022-11-09T06:19:59;13.10;99.90
21944;DHT22;11136;48.778;9.126;2022-11-09T06:22:25;13.10;99.90
21944;DHT22;11136;48.778;9.126;2022-11-09T06:24:50;13.00;99.90
21944;DHT22;11136;48.778;9.126;2022-11-09T06:27:16;13.00;99.90
21944;DHT22;11136;48.778;9.126;2022-11-09T06:29:41;13.10;99.90
21944;DHT22;11136;48.778;9.126;2022-11-09T06:32:07;13.00;99.90
21944;DHT22;11136;48.778;9.126;2022-11-09T06:34:32;13.00;99.90
21944;DHT22;11136;48.778;9.126;2022-11-09T06:36:58;13.10;99.90
21944;DHT22;11136;48.778;9.126;2022-11-09T06:39:23;13.10;99.90
21944;DHT22;11136;48.778;9.126;2022-11-09T06:41:49;13.10;99.90
21944;DHT22;11136;48.778;9.126;2022-11-09T06:44:14;13.10;99.90
21944;DHT22;11136;48.778;9.126;2022-11-09T06:46:40;13.10;99.90
21944;DHT22;11136;48.778;9.126;2022-11-09T06:49:06;13.10;99.90
21944;DHT22;11136;48.778;9.126;2022-11-09T06:51:31;13.10;99.90
21944;DHT22;11136;48.778;9.126;2022-11-09T06:53:57;13.10;99.90
21944;DHT22;11136;48.778;9.126;2022-11-09T06:56:23;13.10;99.90
21944;DHT22;11136;48.778;9.126;2022-11-09T06:58:48;13.10;99.90
21944;DHT22;11136;48.778;9.126;2022-11-09T07:01:16;13.10;99.90
21944;DHT22;11136;48.778;9.126;2022-11-09T07:03:42;13.10;99.90
21944;DHT22;11136;48.778;9.126;2022-11-09T07:06:10;13.10;99.90
21944;DHT22;11136;48.778;9.126;2022-11-09T07:08:36;13.10;99.90
21944;DHT22;11136;48.778;9.126;2022-11-09T07:11:07;13.20;99.90
21944;DHT22;11136;48.778;9.126;2022-11-09T07:13:33;13.20;99.90
21944;DHT22;11136;48.778;9.126;2022-11-09T07:15:58;13.20;99.90
21944;DHT22;11136;48.778;9.126;2022-11-09T07:18:24;13.20;99.90
21944;DHT22;11136;48.778;9.126;2022-11-09T07:20:50;13.20;99.90
21944;DHT22;11136;48.778;9.126;2022-11-09T07:23:15;13.20;99.90
21944;DHT22;11136;48.778;9.126;2022-11-09T07:25:41;13.20;99.90
21944;DHT22;11136;48.778;9.126;2022-11-09T07:28:08;13.20;99.90
21944;DHT22;11136;48.778;9.126;2022-11-09T07:30:34;13.10;99.90
21944;DHT22;11136;48.778;9.126;2022-11-09T07:33:01;13.10;99.90
21944;DHT22;11136;48.778;9.126;2022-11-09T07:35:27;13.10;99.90
21944;DHT22;11136;48.778;9.126;2022-11-09T07:37:53;13.10;99.90
21944;DHT22;11136;48.778;9.126;2022-11-09T07:40:19;13.10;99.90
21944;DHT22;11136;48.778;9.126;2022-11-09T07:42:45;13.10;99.90
21944;DHT22;11136;48.778;9.126;2022-11-09T07:45:11;13.10;99.90
21944;DHT22;11136;48.778;9.126;2022-11-09T07:47:36;13.20;99.90
21944;DHT22;11136;48.778;9.126;2022-11-09T07:50:02;13.30;99.90
21944;DHT22;11136;48.778;9.126;2022-11-09T07:52:28;13.20;99.90
21944;DHT22;11136;48.778;9.126;2022-11-09T07:54:53;13.20;99.90
21944;DHT22;11136;48.778;9.126;2022-11-09T07:57:19;13.30;99.90
21944;DHT22;11136;48.778;9.126;2022-11-09T07:59:44;13.30;99.90
21944;DHT22;11136;48.778;9.126;2022-11-09T08:02:10;13.30;99.90
21944;DHT22;11136;48.778;9.126;2022-11-09T08:04:36;13.30;99.90
21944;DHT22;11136;48.778;9.126;2022-11-09T08:07:01;13.30;99.90
21944;DHT22;11136;48.778;9.126;2022-11-09T08:09:27;13.40;99.90
21944;DHT22;11136;48.778;9.126;2022-11-09T08:11:53;13.30;99.90
21944;DHT22;11136;48.778;9.126;2022-11-09T08:14:18;13.40;99.90
21944;DHT22;11136;48.778;9.126;2022-11-09T08:16:44;13.30;99.90
21944;DHT22;11136;48.778;9.126;2022-11-09T08:19:09;13.30;99.90
21944;DHT22;11136;48.778;9.126;2022-11-09T08:21:36;13.30;99.90
21944;DHT22;11136;48.778;9.126;2022-11-09T08:24:02;13.40;99.90
21944;DHT22;11136;48.778;9.126;2022-11-09T08:26:27;13.30;99.90
21944;DHT22;11136;48.778;9.126;2022-11-09T08:28:53;13.30;99.90
21944;DHT22;11136;48.778;9.126;2022-11-09T08:31:20;13.30;99.90
21944;DHT22;11136;48.778;9.126;2022-11-09T08:33:45;13.30;99.90
21944;DHT22;11136;48.778;9.126;2022-11-09T08:36:15;13.30;99.90
21944;DHT22;11136;48.778;9.126;2022-11-09T08:38:43;13.40;99.90
21944;DHT22;11136;48.778;9.126;2022-11-09T08:41:10;13.40;99.90
21944;DHT22;11136;48.778;9.126;2022-11-09T08:43:36;13.40;99.90
21944;DHT22;11136;48.778;9.126;2022-11-09T08:46:02;13.40;99.90
21944;DHT22;11136;48.778;9.126;2022-11-09T08:48:27;13.40;99.90
21944;DHT22;11136;48.778;9.126;2022-11-09T08:50:55;13.40;99.90
21944;DHT22;11136;48.778;9.126;2022-11-09T08:53:21;13.50;99.90
21944;DHT22;11136;48.778;9.126;2022-11-09T08:55:47;13.50;99.90
21944;DHT22;11136;48.778;9.126;2022-11-09T08:58:13;13.60;99.90
21944;DHT22;11136;48.778;9.126;2022-11-09T09:00:38;13.60;99.90
21944;DHT22;11136;48.778;9.126;2022-11-09T09:03:05;13.80;99.90
21944;DHT22;11136;48.778;9.126;2022-11-09T09:05:31;13.60;99.90
21944;DHT22;11136;48.778;9.126;2022-11-09T09:08:01;13.60;99.90
21944;DHT22;11136;48.778;9.126;2022-11-09T09:10:27;13.70;99.90
21944;DHT22;11136;48.778;9.126;2022-11-09T09:12:53;13.70;99.90
21944;DHT22;11136;48.778;9.126;2022-11-09T09:15:19;13.70;99.90
21944;DHT22;11136;48.778;9.126;2022-11-09T09:17:44;13.70;99.90
21944;DHT22;11136;48.778;9.126;2022-11-09T09:20:10;13.70;99.90
21944;DHT22;11136;48.778;9.126;2022-11-09T09:22:36;13.70;99.90
21944;DHT22;11136;48.778;9.126;2022-11-09T09:25:02;13.80;99.90
21944;DHT22;11136;48.778;9.126;2022-11-09T09:27:29;13.80;99.90
21944;DHT22;11136;48.778;9.126;2022-11-09T09:29:55;13.80;99.90
21944;DHT22;11136;48.778;9.126;2022-11-09T09:32:20;13.80;99.90
21944;DHT22;11136;48.778;9.126;2022-11-09T09:34:46;13.80;99.90
21944;DHT22;11136;48.778;9.126;2022-11-09T09:37:11;13.80;99.90
21944;DHT22;11136;48.778;9.126;2022-11-09T09:39:37;13.90;99.90
21944;DHT22;11136;48.778;9.126;2022-11-09T09:42:29;13.90;99.90
21944;DHT22;11136;48.778;9.126;2022-11-09T09:50:05;14.00;99.90
21944;DHT22;11136;48.778;9.126;2022-11-09T09:52:51;14.00;99.90
21944;DHT22;11136;48.778;9.126;2022-11-09T09:55:33;14.10;99.90
21944;DHT22;11136;48.778;9.126;2022-11-09T10:01:14;14.20;99.90
21944;DHT22;11136;48.778;9.126;2022-11-09T10:03:40;14.20;99.90
21944;DHT22;11136;48.778;9.126;2022-11-09T10:27:34;14.50;99.90
21944;DHT22;11136;48.778;9.126;2022-11-09T10:30:15;14.50;99.90
21944;DHT22;11136;48.778;9.126;2022-11-09T10:32:44;14.50;99.90
21944;DHT22;11136;48.778;9.126;2022-11-09T10:35:28;14.60;99.90
21944;DHT22;11136;48.778;9.126;2022-11-09T10:37:54;14.60;99.90
21944;DHT22;11136;48.778;9.126;2022-11-09T10:40:40;14.70;99.90
21944;DHT22;11136;48.778;9.126;2022-11-09T10:43:11;14.80;99.90
21944;DHT22;11136;48.778;9.126;2022-11-09T10:45:39;14.80;99.90
21944;DHT22;11136;48.778;9.126;2022-11-09T10:48:07;14.80;99.90
21944;DHT22;11136;48.778;9.126;2022-11-09T10:50:48;14.90;99.90
21944;DHT22;11136;48.778;9.126;2022-11-09T10:53:21;15.00;99.90
21944;DHT22;11136;48.778;9.126;2022-11-09T10:56:13;15.00;99.90
21944;DHT22;11136;48.778;9.126;2022-11-09T10:58:50;15.10;99.90
21944;DHT22;11136;48.778;9.126;2022-11-09T11:01:19;15.00;99.90
21944;DHT22;11136;48.778;9.126;2022-11-09T11:03:52;15.10;99.90
21944;DHT22;11136;48.778;9.126;2022-11-09T11:11:34;15.10;99.90
21944;DHT22;11136;48.778;9.126;2022-11-09T11:16:41;15.20;99.90
21944;DHT22;11136;48.778;9.126;2022-11-09T11:25:00;15.20;99.90
21944;DHT22;11136;48.778;9.126;2022-11-09T11:27:49;15.30;99.90
21944;DHT22;11136;48.778;9.126;2022-11-09T11:30:43;15.30;99.90
21944;DHT22;11136;48.778;9.126;2022-11-09T11:33:17;15.30;99.90
21944;DHT22;11136;48.778;9.126;2022-11-09T11:36:03;15.30;99.90
21944;DHT22;11136;48.778;9.126;2022-11-09T11:52:42;15.30;99.90
21944;DHT22;11136;48.778;9.126;2022-11-09T11:55:29;15.20;99.90
21944;DHT22;11136;48.778;9.126;2022-11-09T12:01:04;15.20;99.90
21944;DHT22;11136;48.778;9.126;2022-11-09T12:26:02;15.30;99.90
21944;DHT22;11136;48.778;9.126;2022-11-09T12:28:46;15.30;99.90
21944;DHT22;11136;48.778;9.126;2022-11-09T12:31:21;15.30;99.90
21944;DHT22;11136;48.778;9.126;2022-11-09T12:34:02;15.40;99.90
21944;DHT22;11136;48.778;9.126;2022-11-09T12:42:02;15.40;99.90
21944;DHT22;11136;48.778;9.126;2022-11-09T12:44:36;15.40;99.90
21944;DHT22;11136;48.778;9.126;2022-11-09T12:47:16;15.40;99.90
21944;DHT22;11136;48.778;9.126;2022-11-09T12:49:45;15.50;99.90
21944;DHT22;11136;48.778;9.126;2022-11-09T12:52:13;15.50;99.90
21944;DHT22;11136;48.778;9.126;2022-11-09T12:54:46;15.50;99.90
21944;DHT22;11136;48.778;9.126;2022-11-09T12:57:21;15.50;99.90
21944;DHT22;11136;48.778;9.126;2022-11-09T12:59:55;15.50;99.90
21944;DHT22;11136;48.778;9.126;2022-11-09T13:02:30;15.60;99.90
21944;DHT22;11136;48.778;9.126;2022-11-09T13:05:16;15.60;99.90
21944;DHT22;11136;48.778;9.126;2022-11-09T13:07:47;15.60;99.90
21944;DHT22;11136;48.778;9.126;2022-11-09T13:15:33;15.60;99.90
21944;DHT22;11136;48.778;9.126;2022-11-09T13:23:02;15.60;99.90
21944;DHT22;11136;48.778;9.126;2022-11-09T13:25:45;15.70;99.90
21944;DHT22;11136;48.778;9.126;2022-11-09T13:30:57;16.00;99.90
21944;DHT22;11136;48.778;9.126;2022-11-09T13:33:34;15.60;99.90
21944;DHT22;11136;48.778;9.126;2022-11-09T13:36:13;15.60;99.90
21944;DHT22;11136;48.778;9.126;2022-11-09T13:38:39;15.60;99.90
21944;DHT22;11136;48.778;9.126;2022-11-09T13:44:24;15.60;99.90
21944;DHT22;11136;48.778;9.126;2022-11-09T13:46:51;15.60;99.90
21944;DHT22;11136;48.778;9.126;2022-11-09T13:49:41;15.60;99.90
21944;DHT22;11136;48.778;9.126;2022-11-09T13:53:00;15.60;99.90
21944;DHT22;11136;48.778;9.126;2022-11-09T13:55:36;15.60;99.90
21944;DHT22;11136;48.778;9.126;2022-11-09T13:58:30;15.50;99.90
21944;DHT22;11136;48.778;9.126;2022-11-09T14:00:57;15.50;99.90
21944;DHT22;11136;48.778;9.126;2022-11-09T14:03:26;15.50;99.90
21944;DHT22;11136;48.778;9.126;2022-11-09T14:05:57;15.50;99.90
21944;DHT22;11136;48.778;9.126;2022-11-09T14:13:52;15.50;99.90
21944;DHT22;11136;48.778;9.126;2022-11-09T14:22:15;15.50;99.90
21944;DHT22;11136;48.778;9.126;2022-11-09T14:24:41;15.50;99.90
21944;DHT22;11136;48.778;9.126;2022-11-09T14:29:33;15.50;99.90
21944;DHT22;11136;48.778;9.126;2022-11-09T14:32:22;15.40;99.90
21944;DHT22;11136;48.778;9.126;2022-11-09T14:34:46;15.40;99.90
21944;DHT22;11136;48.778;9.126;2022-11-09T14:37:13;15.40;99.90
21944;DHT22;11136;48.778;9.126;2022-11-09T14:39:39;15.40;99.90
21944;DHT22;11136;48.778;9.126;2022-11-09T14:42:05;15.40;99.90
21944;DHT22;11136;48.778;9.126;2022-11-09T14:44:37;15.40;99.90
21944;DHT22;11136;48.778;9.126;2022-11-09T14:47:26;15.40;99.90
21944;DHT22;11136;48.778;9.126;2022-11-09T14:49:53;15.40;99.90
21944;DHT22;11136;48.778;9.126;2022-11-09T14:52:25;15.40;99.90
21944;DHT22;11136;48.778;9.126;2022-11-09T14:54:52;15.40;99.90
21944;DHT22;11136;48.778;9.126;2022-11-09T14:57:19;15.30;99.90
21944;DHT22;11136;48.778;9.126;2022-11-09T14:59:46;15.30;99.90
21944;DHT22;11136;48.778;9.126;2022-11-09T15:02:15;15.30;99.90
21944;DHT22;11136;48.778;9.126;2022-11-09T15:07:18;15.30;99.90
21944;DHT22;11136;48.778;9.126;2022-11-09T15:09:46;15.20;99.90
21944;DHT22;11136;48.778;9.126;2022-11-09T15:12:14;15.20;99.90
21944;DHT22;11136;48.778;9.126;2022-11-09T15:14:40;15.20;99.90
21944;DHT22;11136;48.778;9.126;2022-11-09T15:17:17;15.20;99.90
21944;DHT22;11136;48.778;9.126;2022-11-09T15:19:57;15.20;99.90
21944;DHT22;11136;48.778;9.126;2022-11-09T15:36:31;15.00;99.90
21944;DHT22;11136;48.778;9.126;2022-11-09T15:38:42;15.00;99.90
21944;DHT22;11136;48.778;9.126;2022-11-09T15:41:14;14.90;99.90
21944;DHT22;11136;48.778;9.126;2022-11-09T15:43:40;14.90;99.90
21944;DHT22;11136;48.778;9.126;2022-11-09T15:46:09;14.90;99.90
21944;DHT22;11136;48.778;9.126;2022-11-09T15:48:35;14.90;99.90
21944;DHT22;11136;48.778;9.126;2022-11-09T15:51:01;14.90;99.90
21944;DHT22;11136;48.778;9.126;2022-11-09T15:53:26;14.90;99.90
21944;DHT22;11136;48.778;9.126;2022-11-09T15:55:52;14.90;99.90
21944;DHT22;11136;48.778;9.126;2022-11-09T15:58:18;14.90;99.90
21944;DHT22;11136;48.778;9.126;2022-11-09T16:00:43;14.90;99.90
21944;DHT22;11136;48.778;9.126;2022-11-09T16:03:10;14.80;99.90
21944;DHT22;11136;48.778;9.126;2022-11-09T16:05:37;14.80;99.90
21944;DHT22;11136;48.778;9.126;2022-11-09T16:08:03;14.80;99.90
21944;DHT22;11136;48.778;9.126;2022-11-09T16:10:28;14.80;99.90
21944;DHT22;11136;48.778;9.126;2022-11-09T16:12:55;14.80;99.90
21944;DHT22;11136;48.778;9.126;2022-11-09T16:15:22;14.80;99.90
21944;DHT22;11136;48.778;9.126;2022-11-09T16:17:48;14.80;99.90
21944;DHT22;11136;48.778;9.126;2022-11-09T16:20:18;14.80;99.90
21944;DHT22;11136;48.778;9.126;2022-11-09T16:22:44;14.80;99.90
21944;DHT22;11136;48.778;9.126;2022-11-09T16:25:10;14.80;99.90
21944;DHT22;11136;48.778;9.126;2022-11-09T16:27:36;14.80;99.90
21944;DHT22;11136;48.778;9.126;2022-11-09T16:30:03;14.80;99.90
21944;DHT22;11136;48.778;9.126;2022-11-09T16:32:28;14.80;99.90
21944;DHT22;11136;48.778;9.126;2022-11-09T16:34:54;14.80;99.90
21944;DHT22;11136;48.778;9.126;2022-11-09T16:37:20;14.70;99.90
21944;DHT22;11136;48.778;9.126;2022-11-09T16:39:46;14.70;99.90
21944;DHT22;11136;48.778;9.126;2022-11-09T16:42:13;14.70;99.90
21944;DHT22;11136;48.778;9.126;2022-11-09T16:44:41;14.70;99.90
21944;DHT22;11136;48.778;9.126;2022-11-09T16:47:09;14.70;99.90
21944;DHT22;11136;48.778;9.126;2022-11-09T16:49:36;14.70;99.90
21944;DHT22;11136;48.778;9.126;2022-11-09T16:52:02;14.70;99.90
21944;DHT22;11136;48.778;9.126;2022-11-09T16:54:28;14.70;99.90
21944;DHT22;11136;48.778;9.126;2022-11-09T16:56:53;14.70;99.90
21944;DHT22;11136;48.778;9.126;2022-11-09T16:59:20;14.70;99.90
21944;DHT22;11136;48.778;9.126;2022-11-09T17:01:56;14.60;99.90
21944;DHT22;11136;48.778;9.126;2022-11-09T17:04:23;14.60;99.90
21944;DHT22;11136;48.778;9.126;2022-11-09T17:06:49;14.60;99.90
21944;DHT22;11136;48.778;9.126;2022-11-09T17:09:15;14.60;99.90
21944;DHT22;11136;48.778;9.126;2022-11-09T17:11:41;14.60;99.90
21944;DHT22;11136;48.778;9.126;2022-11-09T17:14:07;14.60;99.90
21944;DHT22;11136;48.778;9.126;2022-11-09T17:16:33;14.50;99.90
21944;DHT22;11136;48.778;9.126;2022-11-09T17:18:59;14.50;99.90
21944;DHT22;11136;48.778;9.126;2022-11-09T17:21:26;14.50;99.90
21944;DHT22;11136;48.778;9.126;2022-11-09T17:23:53;14.50;99.90
21944;DHT22;11136;48.778;9.126;2022-11-09T17:26:20;14.50;99.90
21944;DHT22;11136;48.778;9.126;2022-11-09T17:28:47;14.40;99.90
21944;DHT22;11136;48.778;9.126;2022-11-09T17:31:15;14.40;99.90
21944;DHT22;11136;48.778;9.126;2022-11-09T17:33:41;14.40;99.90
21944;DHT22;11136;48.778;9.126;2022-11-09T17:36:09;14.40;99.90
21944;DHT22;11136;48.778;9.126;2022-11-09T17:38:36;14.40;99.90
21944;DHT22;11136;48.778;9.126;2022-11-09T17:41:13;14.30;99.90
21944;DHT22;11136;48.778;9.126;2022-11-09T17:43:40;14.30;99.90
21944;DHT22;11136;48.778;9.126;2022-11-09T17:46:09;14.60;99.90
21944;DHT22;11136;48.778;9.126;2022-11-09T17:48:37;14.30;99.90
21944;DHT22;11136;48.778;9.126;2022-11-09T17:51:04;14.30;99.90
21944;DHT22;11136;48.778;9.126;2022-11-09T17:53:30;14.30;99.90
21944;DHT22;11136;48.778;9.126;2022-11-09T17:55:55;14.20;99.90
21944;DHT22;11136;48.778;9.126;2022-11-09T17:58:21;14.20;99.90
21944;DHT22;11136;48.778;9.126;2022-11-09T18:00:47;14.20;99.90